HAWK410 ETHL-ETHL

Flight info

Callsign HAWK410
Flight time 1h 17m
Altitude 1111
Route VFR
Aircraft EC45/L-SDE3FGHIRWY/S

Departure

Time 2026-04-30 12:43
Airport Laupheim Air Base (ETHL)

Arrival

Time 2026-04-30 14:00
Airport Laupheim Air Base (ETHL)
Time Latitude Longitude Altitude Speed Heading
2026-04-30 12:13 48.21738 9.91207 1772 ft 0 kts 291°
2026-04-30 12:40 48.21737 9.91200 1781 ft 3 kts 296°
2026-04-30 12:40 48.21754 9.91192 1781 ft 4 kts 23°
2026-04-30 12:41 48.21805 9.91216 1779 ft 12 kts
2026-04-30 12:41 48.21908 9.91223 1780 ft 16 kts
2026-04-30 12:41 48.21996 9.91229 1781 ft 3 kts 62°
2026-04-30 12:41 48.22003 9.91229 1777 ft 0 kts 91°
2026-04-30 12:42 48.22004 9.91227 1775 ft 1 kts 94°
2026-04-30 12:42 48.22004 9.91228 1774 ft 0 kts 95°
2026-04-30 12:43 48.22002 9.91233 1785 ft 11 kts 96°
2026-04-30 12:43 48.21981 9.91791 1937 ft 77 kts 86°
2026-04-30 12:43 48.21944 9.92621 2259 ft 80 kts 85°
2026-04-30 12:43 48.21890 9.93481 2465 ft 86 kts 87°
2026-04-30 12:44 48.21848 9.94401 2680 ft 90 kts 86°
2026-04-30 12:44 48.21899 9.95324 2735 ft 89 kts 73°
2026-04-30 12:44 48.22236 9.96106 2792 ft 94 kts 49°
2026-04-30 12:44 48.22767 9.96777 2781 ft 104 kts 47°
2026-04-30 12:45 48.23354 9.97489 2636 ft 112 kts 44°
2026-04-30 12:45 48.23442 9.97593 2610 ft 113 kts 44°
2026-04-30 12:45 48.23648 9.97829 2601 ft 112 kts 45°
2026-04-30 12:45 48.24247 9.98557 2584 ft 111 kts 46°
2026-04-30 12:46 48.24809 9.99329 2589 ft 108 kts 49°
2026-04-30 12:46 48.25364 10.00090 2594 ft 108 kts 48°
2026-04-30 12:46 48.25912 10.00850 2579 ft 107 kts 50°
2026-04-30 12:46 48.26452 10.01601 2592 ft 105 kts 49°
2026-04-30 12:47 48.26975 10.02358 2629 ft 105 kts 52°
2026-04-30 12:47 48.27365 10.03253 2634 ft 103 kts 64°
2026-04-30 12:47 48.27707 10.04219 2601 ft 107 kts 64°
2026-04-30 12:47 48.28051 10.05217 2602 ft 108 kts 65°
2026-04-30 12:48 48.28394 10.06222 2536 ft 109 kts 65°
2026-04-30 12:48 48.28734 10.07223 2523 ft 110 kts 64°
2026-04-30 12:48 48.29081 10.08247 2509 ft 110 kts 64°
2026-04-30 12:48 48.29428 10.09277 2466 ft 111 kts 66°
2026-04-30 12:49 48.29772 10.10314 2433 ft 109 kts 65°
2026-04-30 12:49 48.30106 10.11324 2437 ft 105 kts 65°
2026-04-30 12:49 48.30424 10.12292 2475 ft 101 kts 66°
2026-04-30 12:49 48.30699 10.13230 2480 ft 98 kts 71°
2026-04-30 12:50 48.30883 10.14218 2532 ft 97 kts 78°
2026-04-30 12:50 48.30962 10.15224 2608 ft 97 kts 85°
2026-04-30 12:50 48.30936 10.16240 2699 ft 98 kts 91°
2026-04-30 12:50 48.30809 10.17251 2788 ft 99 kts 97°
2026-04-30 12:51 48.30656 10.18271 2788 ft 101 kts 96°
2026-04-30 12:51 48.30541 10.19311 2798 ft 101 kts 92°
2026-04-30 12:51 48.30520 10.20366 2904 ft 101 kts 86°
2026-04-30 12:51 48.30571 10.21442 2896 ft 108 kts 81°
2026-04-30 12:52 48.30618 10.22645 2615 ft 122 kts 85°
2026-04-30 12:52 48.30661 10.23954 2229 ft 129 kts 82°
2026-04-30 12:52 48.30697 10.25189 2210 ft 109 kts 85°
2026-04-30 12:52 48.30706 10.26260 2346 ft 96 kts 87°
2026-04-30 12:53 48.30679 10.27245 2442 ft 94 kts 90°
2026-04-30 12:53 48.30668 10.28240 2475 ft 97 kts 85°
2026-04-30 12:53 48.30704 10.29285 2484 ft 103 kts 84°
2026-04-30 12:53 48.30715 10.30370 2468 ft 104 kts 91°
2026-04-30 12:54 48.30651 10.31441 2459 ft 103 kts 92°
2026-04-30 12:54 48.30600 10.32503 2439 ft 102 kts 90°
2026-04-30 12:54 48.30559 10.33571 2366 ft 103 kts 88°
2026-04-30 12:54 48.30545 10.34642 2253 ft 101 kts 85°
2026-04-30 12:55 48.30580 10.35654 2329 ft 95 kts 86°
2026-04-30 12:55 48.30656 10.36628 2431 ft 95 kts 79°
2026-04-30 12:55 48.30769 10.37611 2469 ft 94 kts 79°
2026-04-30 12:55 48.30855 10.38598 2511 ft 96 kts 83°
2026-04-30 12:56 48.30915 10.39600 2389 ft 97 kts 85°
2026-04-30 12:56 48.30951 10.40617 2282 ft 98 kts 87°
2026-04-30 12:56 48.30961 10.41643 2243 ft 99 kts 89°
2026-04-30 12:56 48.30989 10.42682 2215 ft 101 kts 85°
2026-04-30 12:57 48.31075 10.43745 2212 ft 104 kts 81°
2026-04-30 12:57 48.31216 10.44818 2211 ft 106 kts 79°
2026-04-30 12:57 48.31377 10.45899 2142 ft 107 kts 78°
2026-04-30 12:57 48.31496 10.46976 2101 ft 103 kts 88°
2026-04-30 12:58 48.31422 10.47973 2288 ft 87 kts 98°
2026-04-30 12:58 48.31124 10.48653 2372 ft 72 kts 128°
2026-04-30 12:58 48.31111 10.49220 2291 ft 57 kts 60°
2026-04-30 12:58 48.31398 10.49709 2257 ft 67 kts 54°
2026-04-30 12:59 48.31762 10.50224 2232 ft 76 kts 50°
2026-04-30 12:59 48.32196 10.50735 2166 ft 82 kts 43°
2026-04-30 12:59 48.32686 10.51200 2069 ft 85 kts 39°
2026-04-30 12:59 48.32409 10.51740 2023 ft 108 kts 162°
2026-04-30 13:00 48.31644 10.51766 2014 ft 115 kts 182°
2026-04-30 13:00 48.31175 10.52140 1926 ft 56 kts 73°
2026-04-30 13:00 48.31370 10.52065 2317 ft 36 kts 266°
2026-04-30 13:00 48.31363 10.51983 2420 ft 37 kts 311°
2026-04-30 13:01 48.31430 10.51619 2571 ft 49 kts 335°
2026-04-30 13:02 48.31560 10.51868 2038 ft 59 kts 102°
2026-04-30 13:02 48.31406 10.52262 1888 ft 29 kts 212°
2026-04-30 13:02 48.31322 10.52135 1741 ft 12 kts 306°
2026-04-30 13:02 48.31468 10.51775 1937 ft 73 kts 293°
2026-04-30 13:03 48.31401 10.51409 2130 ft 36 kts 84°
2026-04-30 13:03 48.31352 10.51649 2102 ft 23 kts 56°
2026-04-30 13:03 48.31395 10.51870 1953 ft 17 kts 37°
2026-04-30 13:03 48.31359 10.51996 1825 ft 12 kts 19°
2026-04-30 13:04 48.31610 10.51641 1890 ft 88 kts 314°
2026-04-30 13:04 48.31522 10.51451 1916 ft 49 kts 117°
2026-04-30 13:04 48.31406 10.51841 1856 ft 33 kts 99°
2026-04-30 13:04 48.31366 10.51988 1689 ft 5 kts 103°
2026-04-30 13:05 48.31363 10.51986 1644 ft 1 kts 101°
2026-04-30 13:05 48.31364 10.51986 1637 ft 0 kts 103°
2026-04-30 13:06 48.31354 10.52070 1730 ft 30 kts 99°
2026-04-30 13:06 48.31469 10.52594 1792 ft 81 kts 38°
2026-04-30 13:06 48.31529 10.53073 1762 ft 62 kts 126°
2026-04-30 13:07 48.31345 10.52677 1945 ft 27 kts 348°
2026-04-30 13:07 48.31457 10.52807 1885 ft 25 kts 59°
2026-04-30 13:07 48.31522 10.53009 1685 ft 14 kts 43°
2026-04-30 13:07 48.31530 10.53051 1612 ft 1 kts 41°
2026-04-30 13:08 48.31530 10.53055 1608 ft 0 kts 27°
2026-04-30 13:08 48.31609 10.53319 1683 ft 60 kts 64°
2026-04-30 13:08 48.31937 10.53649 1880 ft 84 kts 353°
2026-04-30 13:09 48.32137 10.53916 1687 ft 54 kts 132°
2026-04-30 13:09 48.32216 10.54318 1624 ft 58 kts 342°
2026-04-30 13:09 48.32187 10.54052 2436 ft 38 kts 207°
2026-04-30 13:09 48.32267 10.53760 1820 ft 78 kts
2026-04-30 13:10 48.32599 10.54236 1628 ft 83 kts 83°
2026-04-30 13:10 48.32819 10.54938 1593 ft 74 kts 72°
2026-04-30 13:10 48.32885 10.55651 1596 ft 70 kts 61°
2026-04-30 13:10 48.33196 10.56221 1679 ft 72 kts 37°
2026-04-30 13:11 48.33305 10.55496 1579 ft 95 kts 230°
2026-04-30 13:11 48.32963 10.54723 1643 ft 88 kts 219°
2026-04-30 13:11 48.32743 10.53782 1649 ft 100 kts 253°
2026-04-30 13:11 48.32469 10.52955 1657 ft 80 kts 267°
2026-04-30 13:12 48.32559 10.52516 1747 ft 13 kts 102°
2026-04-30 13:12 48.32561 10.52657 1724 ft 10 kts 92°
2026-04-30 13:12 48.32527 10.52780 1731 ft 15 kts 96°
2026-04-30 13:13 48.32505 10.52858 1628 ft 1 kts 92°
2026-04-30 13:13 48.32506 10.52859 1607 ft 0 kts 92°
2026-04-30 13:14 48.32483 10.52988 1628 ft 34 kts 85°
2026-04-30 13:14 48.32610 10.54183 1585 ft 73 kts 84°
2026-04-30 13:15 48.32308 10.54424 1617 ft 85 kts 195°
2026-04-30 13:15 48.32299 10.54419 1620 ft 85 kts 195°
2026-04-30 13:16 48.32022 10.54317 1665 ft 85 kts 178°
2026-04-30 13:16 48.31612 10.53721 1731 ft 93 kts 233°
2026-04-30 13:16 48.31463 10.52875 1845 ft 85 kts 260°
2026-04-30 13:17 48.31280 10.51733 1820 ft 33 kts 67°
2026-04-30 13:17 48.31354 10.51922 1813 ft 12 kts 78°
2026-04-30 13:17 48.31358 10.51974 1665 ft 1 kts 89°
2026-04-30 13:18 48.31357 10.51974 1641 ft 0 kts 90°
2026-04-30 13:18 48.31355 10.51972 1687 ft 2 kts 94°
2026-04-30 13:18 48.31685 10.51976 1904 ft 93 kts 337°
2026-04-30 13:19 48.31797 10.51422 1997 ft 34 kts 159°
2026-04-30 13:19 48.31721 10.51534 1977 ft 11 kts 93°
2026-04-30 13:19 48.31711 10.51592 1950 ft 3 kts 89°
2026-04-30 13:19 48.31690 10.51608 1889 ft 3 kts 85°
2026-04-30 13:20 48.31686 10.51621 1807 ft 2 kts 87°
2026-04-30 13:20 48.31686 10.51617 1798 ft 1 kts 85°
2026-04-30 13:20 48.31685 10.51619 1793 ft 0 kts 86°
2026-04-30 13:20 48.31685 10.51618 1793 ft 0 kts 87°
2026-04-30 13:21 48.31689 10.51706 1836 ft 30 kts 116°
2026-04-30 13:22 48.31589 10.52557 1898 ft 30 kts 30°
2026-04-30 13:22 48.31925 10.52441 1875 ft 68 kts 295°
2026-04-30 13:22 48.31407 10.51200 2094 ft 74 kts 267°
2026-04-30 13:23 48.31548 10.51149 2052 ft 39 kts 57°
2026-04-30 13:23 48.31677 10.51584 1953 ft 13 kts 69°
2026-04-30 13:24 48.31705 10.51715 1863 ft 2 kts 62°
2026-04-30 13:24 48.31700 10.51715 1787 ft 0 kts 62°
2026-04-30 13:25 48.31698 10.51716 1805 ft 5 kts 75°
2026-04-30 13:26 48.31494 10.50992 2055 ft 59 kts 43°
2026-04-30 13:26 48.31648 10.51509 1998 ft 23 kts 72°
2026-04-30 13:28 48.31679 10.51604 1964 ft 8 kts 63°
2026-04-30 13:28 48.31692 10.51673 1913 ft 8 kts 58°
2026-04-30 13:29 48.31694 10.51720 1831 ft 3 kts 57°
2026-04-30 13:29 48.31695 10.51725 1788 ft 0 kts 53°
2026-04-30 13:32 48.31381 10.51935 1958 ft 103 kts 211°
2026-04-30 13:32 48.31341 10.51863 1959 ft 105 kts 221°
2026-04-30 13:33 48.31214 10.51252 2097 ft 96 kts 282°
2026-04-30 13:33 48.31609 10.51333 2105 ft 22 kts 69°
2026-04-30 13:34 48.31655 10.51472 2075 ft 17 kts 72°
2026-04-30 13:34 48.31699 10.51711 1836 ft 0 kts 77°
2026-04-30 13:35 48.31697 10.51715 1788 ft 0 kts 68°
2026-04-30 13:36 48.31695 10.51714 1822 ft 2 kts 72°
2026-04-30 13:36 48.31655 10.51923 1976 ft 49 kts 131°
2026-04-30 13:36 48.31366 10.51936 1760 ft 10 kts 82°
2026-04-30 13:37 48.31372 10.51994 1651 ft 2 kts 82°
2026-04-30 13:37 48.31434 10.52175 1728 ft 56 kts 69°
2026-04-30 13:38 48.31729 10.53736 1628 ft 78 kts 76°
2026-04-30 13:38 48.31557 10.54212 1645 ft 33 kts 129°
2026-04-30 13:38 48.31506 10.54252 1615 ft 0 kts 67°
2026-04-30 13:39 48.31547 10.54292 1635 ft 51 kts 13°
2026-04-30 13:39 48.31373 10.51992 1642 ft 0 kts 82°
2026-04-30 13:40 48.31372 10.51992 1645 ft 1 kts 75°
2026-04-30 13:40 48.31439 10.51685 1914 ft 44 kts 302°
2026-04-30 13:40 48.31504 10.51388 2100 ft 28 kts 83°
2026-04-30 13:40 48.31511 10.52012 2088 ft 69 kts 81°
2026-04-30 13:41 48.31623 10.52804 1965 ft 103 kts 82°
2026-04-30 13:41 48.31634 10.53412 1681 ft 46 kts 73°
2026-04-30 13:41 48.31716 10.53698 1604 ft 7 kts 24°
2026-04-30 13:41 48.31834 10.54092 1631 ft 49 kts 66°
2026-04-30 13:42 48.31742 10.54323 1707 ft 13 kts 85°
2026-04-30 13:42 48.31854 10.54281 1611 ft 30 kts 211°
2026-04-30 13:42 48.31636 10.54098 1634 ft 26 kts 85°
2026-04-30 13:43 48.31778 10.54148 1613 ft 28 kts 47°
2026-04-30 13:43 48.31838 10.54236 1606 ft 3 kts 325°
2026-04-30 13:43 48.31847 10.54236 1605 ft 1 kts 325°
2026-04-30 13:43 48.31849 10.54236 1603 ft 0 kts 317°
2026-04-30 13:45 48.31865 10.54214 1637 ft 34 kts 342°
2026-04-30 13:46 48.31985 10.53733 1683 ft 20 kts 131°
2026-04-30 13:46 48.31888 10.53819 1636 ft 2 kts 85°
2026-04-30 13:46 48.31883 10.53821 1621 ft 1 kts 77°
2026-04-30 13:46 48.31884 10.53827 1621 ft 0 kts 75°
2026-04-30 13:47 48.31871 10.53837 1689 ft 29 kts 143°
2026-04-30 13:47 48.31453 10.53560 1850 ft 77 kts 181°
2026-04-30 13:47 48.31233 10.53050 1774 ft 91 kts 233°
2026-04-30 13:47 48.30927 10.52151 1996 ft 101 kts 233°
2026-04-30 13:48 48.30620 10.51142 2160 ft 111 kts 247°
2026-04-30 13:48 48.30475 10.49937 2214 ft 130 kts 270°
2026-04-30 13:48 48.30471 10.48443 2155 ft 152 kts 268°
2026-04-30 13:48 48.30464 10.46897 2186 ft 151 kts 270°
2026-04-30 13:49 48.30454 10.45242 2186 ft 158 kts 270°
2026-04-30 13:49 48.30442 10.43591 2183 ft 158 kts 271°
2026-04-30 13:49 48.30424 10.41947 2207 ft 157 kts 270°
2026-04-30 13:49 48.30390 10.40338 2168 ft 155 kts 270°
2026-04-30 13:50 48.30354 10.38711 2131 ft 154 kts 270°
2026-04-30 13:50 48.30285 10.35625 2349 ft 142 kts 270°
2026-04-30 13:50 48.30254 10.34135 2445 ft 142 kts 272°
2026-04-30 13:51 48.30227 10.32663 2462 ft 141 kts 272°
2026-04-30 13:51 48.30202 10.31194 2567 ft 141 kts 271°
2026-04-30 13:51 48.30182 10.29696 2627 ft 147 kts 271°
2026-04-30 13:51 48.30166 10.28114 2606 ft 154 kts 270°
2026-04-30 13:52 48.30146 10.26480 2570 ft 158 kts 272°
2026-04-30 13:52 48.30119 10.24807 2511 ft 162 kts 270°
2026-04-30 13:52 48.30035 10.23124 2471 ft 161 kts 264°
2026-04-30 13:52 48.29787 10.21489 2450 ft 159 kts 256°
2026-04-30 13:53 48.29507 10.19888 2447 ft 158 kts 258°
2026-04-30 13:53 48.29276 10.18292 2424 ft 156 kts 258°
2026-04-30 13:53 48.29047 10.16698 2417 ft 155 kts 261°
2026-04-30 13:53 48.28832 10.15138 2422 ft 154 kts 261°
2026-04-30 13:54 48.28625 10.13550 2410 ft 152 kts 261°
2026-04-30 13:54 48.28437 10.12020 2425 ft 150 kts 261°
2026-04-30 13:54 48.28258 10.10482 2443 ft 150 kts 262°
2026-04-30 13:54 48.28083 10.08932 2486 ft 150 kts 263°
2026-04-30 13:55 48.27909 10.07378 2531 ft 151 kts 260°
2026-04-30 13:55 48.27724 10.05829 2551 ft 151 kts 259°
2026-04-30 13:55 48.27509 10.04300 2594 ft 149 kts 255°
2026-04-30 13:55 48.27106 10.02880 2566 ft 148 kts 244°
2026-04-30 13:56 48.26687 10.01473 2546 ft 147 kts 244°
2026-04-30 13:56 48.26280 10.00068 2513 ft 146 kts 245°
2026-04-30 13:56 48.25909 9.98651 2576 ft 147 kts 247°
2026-04-30 13:56 48.25558 9.97192 2542 ft 151 kts 250°
2026-04-30 13:57 48.25216 9.95672 2530 ft 156 kts 253°
2026-04-30 13:57 48.25027 9.94065 2435 ft 155 kts 264°
2026-04-30 13:57 48.24950 9.92454 2421 ft 155 kts 272°
2026-04-30 13:57 48.24939 9.90861 2382 ft 151 kts 272°
2026-04-30 13:58 48.24930 9.89294 2410 ft 150 kts 275°
2026-04-30 13:58 48.24574 9.86311 2397 ft 150 kts 217°
2026-04-30 13:58 48.23731 9.85509 2418 ft 138 kts 200°
2026-04-30 13:59 48.22849 9.85215 2450 ft 121 kts 161°
2026-04-30 13:59 48.22203 9.85786 2506 ft 102 kts 122°
2026-04-30 13:59 48.21760 9.86491 2518 ft 84 kts 116°
2026-04-30 13:59 48.21500 9.87183 2495 ft 71 kts 92°
2026-04-30 14:00 48.21549 9.87890 2362 ft 68 kts 67°
2026-04-30 14:00 48.21857 9.89080 2088 ft 50 kts 63°
2026-04-30 14:00 48.21989 9.89508 1998 ft 42 kts 64°
2026-04-30 14:01 48.22045 9.89899 1900 ft 36 kts 82°
2026-04-30 14:01 48.22041 9.90178 1829 ft 15 kts 83°
2026-04-30 14:01 48.22035 9.90296 1799 ft 9 kts 91°
2026-04-30 14:01 48.22033 9.90361 1775 ft 3 kts 95°
2026-04-30 14:02 48.22033 9.90374 1767 ft 0 kts 95°
2026-04-30 14:02 48.22032 9.90374 1775 ft 1 kts 95°
2026-04-30 14:03 48.21959 9.90379 1776 ft 5 kts 93°
2026-04-30 14:03 48.21958 9.90401 1773 ft 2 kts 93°
2026-04-30 14:03 48.21958 9.90411 1767 ft 0 kts 95°
2026-04-30 14:07 48.21951 9.90591 1784 ft 47 kts 84°
2026-04-30 14:08 48.21913 9.91943 1973 ft 76 kts 86°
2026-04-30 14:08 48.21874 9.92714 2096 ft 73 kts 87°
2026-04-30 14:08 48.21725 9.93973 2421 ft 74 kts 95°
2026-04-30 14:09 48.21618 9.94810 2447 ft 89 kts 93°
2026-04-30 14:09 48.21587 9.95781 2365 ft 95 kts 71°
2026-04-30 14:09 48.22797 9.96319 2501 ft 113 kts 352°
2026-04-30 14:10 48.23591 9.95949 2450 ft 121 kts 347°
2026-04-30 14:10 48.24253 9.95207 2517 ft 129 kts 309°
2026-04-30 14:10 48.24514 9.93934 2604 ft 127 kts 283°
2026-04-30 14:10 48.24652 9.92627 2571 ft 127 kts 284°
2026-04-30 14:11 48.24798 9.91322 2554 ft 127 kts 287°
2026-04-30 14:11 48.24917 9.89991 2558 ft 130 kts 279°
2026-04-30 14:11 48.24969 9.88617 2569 ft 133 kts 276°
2026-04-30 14:11 48.24974 9.87223 2581 ft 136 kts 263°
2026-04-30 14:12 48.24456 9.86108 2529 ft 131 kts 206°
2026-04-30 14:12 48.23659 9.85496 2513 ft 125 kts 192°
2026-04-30 14:12 48.22874 9.85369 2524 ft 102 kts 150°
2026-04-30 14:12 48.22354 9.85868 2564 ft 85 kts 122°
2026-04-30 14:13 48.21969 9.86523 2507 ft 82 kts 112°
2026-04-30 14:13 48.21656 9.87194 2433 ft 76 kts 107°
2026-04-30 14:13 48.21533 9.87942 2263 ft 71 kts 73°
2026-04-30 14:13 48.21687 9.88573 2157 ft 62 kts 63°
2026-04-30 14:14 48.21847 9.89110 1984 ft 50 kts 65°
2026-04-30 14:14 48.21976 9.89537 1947 ft 40 kts 64°
2026-04-30 14:14 48.22043 9.89907 1873 ft 33 kts 86°
2026-04-30 14:14 48.22038 9.90186 1815 ft 19 kts 87°
2026-04-30 14:15 48.22033 9.90311 1791 ft 7 kts 77°
2026-04-30 14:15 48.22032 9.90364 1779 ft 4 kts 92°
2026-04-30 14:15 48.22032 9.90377 1767 ft 1 kts 92°
2026-04-30 14:16 48.22030 9.90396 1780 ft 20 kts 93°
2026-04-30 14:16 48.22008 9.90981 1907 ft 81 kts 84°
2026-04-30 14:17 48.21977 9.91905 2032 ft 93 kts 86°
2026-04-30 14:17 48.21909 9.92864 2251 ft 92 kts 89°
2026-04-30 14:17 48.21859 9.93813 2495 ft 91 kts 88°
2026-04-30 14:17 48.21820 9.94837 2502 ft 106 kts 88°
2026-04-30 14:18 48.21846 9.95955 2460 ft 112 kts 66°
2026-04-30 14:18 48.22529 9.96478 2496 ft 126 kts
2026-04-30 14:18 48.24204 9.95558 2533 ft 127 kts 348°
2026-04-30 14:19 48.24846 9.93034 2649 ft 140 kts 253°
2026-04-30 14:19 48.24262 9.92093 2543 ft 111 kts 202°
2026-04-30 14:19 48.23669 9.91587 2513 ft 86 kts 191°
2026-04-30 14:20 48.23183 9.91261 2433 ft 68 kts 184°
2026-04-30 14:20 48.22791 9.91001 2244 ft 53 kts 172°
2026-04-30 14:20 48.22250 9.90774 1791 ft 21 kts 143°
2026-04-30 14:21 48.22221 9.90767 1784 ft 2 kts 144°
2026-04-30 14:21 48.22215 9.90762 1773 ft 1 kts 143°
2026-04-30 14:21 48.22214 9.90762 1770 ft 0 kts 145°
2026-04-30 14:22 48.22213 9.90763 1779 ft 4 kts 146°
2026-04-30 14:22 48.22020 9.90791 1857 ft 29 kts 301°
2026-04-30 14:23 48.21959 9.90392 1772 ft 0 kts 94°
2026-04-30 14:23 48.21959 9.90394 1767 ft 0 kts 96°
2026-04-30 14:24 48.22001 9.91119 1862 ft 70 kts 81°
2026-04-30 14:24 48.21981 9.91912 1987 ft 82 kts 88°
2026-04-30 14:25 48.21816 9.93705 2244 ft 89 kts 86°
2026-04-30 14:25 48.21809 9.95525 2456 ft 86 kts 93°
2026-04-30 14:26 48.22658 9.96375 2540 ft 108 kts 353°
2026-04-30 14:26 48.23358 9.95906 2497 ft 110 kts 355°
2026-04-30 14:26 48.24658 9.94735 2612 ft 129 kts 291°
2026-04-30 14:27 48.24707 9.94384 2617 ft 131 kts 285°
2026-04-30 14:27 48.24735 9.94160 2615 ft 132 kts 285°
2026-04-30 14:28 48.24782 9.93702 2610 ft 133 kts 281°
2026-04-30 14:28 48.24703 9.92802 2529 ft 124 kts 242°
2026-04-30 14:28 48.24517 9.92459 2536 ft 115 kts 216°
2026-04-30 14:29 48.23382 9.91371 2402 ft 79 kts 193°
2026-04-30 14:29 48.22830 9.91045 2157 ft 61 kts 185°
2026-04-30 14:30 48.22241 9.90772 1791 ft 1 kts 111°
2026-04-30 14:31 48.22231 9.90793 1793 ft 10 kts 130°
2026-04-30 14:31 48.22037 9.90452 1782 ft 25 kts 118°
2026-04-30 14:31 48.21974 9.90393 1804 ft 1 kts 89°
2026-04-30 14:32 48.21959 9.90396 1822 ft 1 kts 90°
2026-04-30 14:32 48.21937 9.90804 1894 ft 68 kts 89°
2026-04-30 14:32 48.21921 9.91514 2100 ft 69 kts 88°
2026-04-30 14:33 48.21863 9.92242 2282 ft 74 kts 98°
2026-04-30 14:33 48.20934 9.92015 2533 ft 110 kts 253°
2026-04-30 14:33 48.20881 9.90866 2484 ft 109 kts 278°
2026-04-30 14:34 48.21119 9.89866 2426 ft 95 kts 326°
2026-04-30 14:34 48.21615 9.89842 2233 ft 70 kts 46°
2026-04-30 14:34 48.21996 9.90279 1970 ft 67 kts 36°
2026-04-30 14:34 48.22288 9.90587 1820 ft 27 kts 27°
2026-04-30 14:35 48.22057 9.90484 1795 ft 43 kts 135°
2026-04-30 14:35 48.21952 9.90547 1868 ft 48 kts 88°
2026-04-30 14:35 48.21926 9.91246 1998 ft 76 kts 88°
2026-04-30 14:36 48.21896 9.92085 2166 ft 81 kts 90°
2026-04-30 14:36 48.21630 9.92789 2317 ft 94 kts 142°
2026-04-30 14:36 48.21016 9.92410 2442 ft 121 kts 240°
2026-04-30 14:36 48.20862 9.91116 2454 ft 130 kts 271°
2026-04-30 14:37 48.21065 9.89898 2439 ft 112 kts 310°
2026-04-30 14:37 48.21579 9.89327 2331 ft 78 kts 10°
2026-04-30 14:37 48.21919 9.89630 2173 ft 49 kts 78°
2026-04-30 14:37 48.21958 9.90045 2040 ft 34 kts 88°
2026-04-30 14:38 48.21961 9.90290 1860 ft 14 kts 85°
2026-04-30 14:38 48.21957 9.90381 1841 ft 4 kts 86°
2026-04-30 14:38 48.21960 9.90394 1834 ft 1 kts 96°
2026-04-30 14:38 48.21947 9.90637 1863 ft 58 kts 91°
2026-04-30 14:39 48.21926 9.91284 2042 ft 67 kts 88°
2026-04-30 14:39 48.21920 9.92042 2149 ft 78 kts 86°
2026-04-30 14:39 48.21657 9.92758 2240 ft 96 kts 143°
2026-04-30 14:40 48.20815 9.91569 2442 ft 117 kts 268°
2026-04-30 14:40 48.20805 9.90776 2445 ft 113 kts 276°
2026-04-30 14:40 48.20923 9.89912 2398 ft 100 kts 313°
2026-04-30 14:40 48.20937 9.89879 2392 ft 99 kts 315°
2026-04-30 14:41 48.20967 9.89816 2380 ft 97 kts 324°
2026-04-30 14:42 48.21419 9.89602 2204 ft 53 kts 48°
2026-04-30 14:42 48.21700 9.89975 2101 ft 56 kts 29°
2026-04-30 14:42 48.22002 9.90297 1956 ft 49 kts 32°
2026-04-30 14:42 48.22241 9.90545 1843 ft 33 kts 52°
2026-04-30 14:43 48.22080 9.90882 1826 ft 60 kts 112°
2026-04-30 14:43 48.22013 9.91148 1803 ft 36 kts 108°
2026-04-30 14:43 48.21876 9.91217 1784 ft 12 kts 174°
2026-04-30 14:43 48.21808 9.91216 1778 ft 9 kts 182°
2026-04-30 14:44 48.21758 9.91188 1778 ft 2 kts 116°
2026-04-30 14:44 48.21750 9.91200 1777 ft 1 kts 114°
2026-04-30 14:44 48.21746 9.91209 1772 ft 0 kts 113°